sensor_id;sensor_type;location;lat;lon;timestamp;P1;P2;P0
77699;PMS5003;66867;42.658;23.320;2023-10-31T00:00:00;12;11;
77699;PMS5003;66867;42.658;23.320;2023-10-31T00:01:00;12;12;
77699;PMS5003;66867;42.658;23.320;2023-10-31T00:02:01;13;13;
77699;PMS5003;66867;42.658;23.320;2023-10-31T00:03:00;11;10;
77699;PMS5003;66867;42.658;23.320;2023-10-31T00:04:00;13;12;
77699;PMS5003;66867;42.658;23.320;2023-10-31T00:05:00;16;16;
77699;PMS5003;66867;42.658;23.320;2023-10-31T00:06:00;13;12;
77699;PMS5003;66867;42.658;23.320;2023-10-31T00:07:00;13;12;
77699;PMS5003;66867;42.658;23.320;2023-10-31T00:08:00;12;12;
77699;PMS5003;66867;42.658;23.320;2023-10-31T00:09:00;12;12;
77699;PMS5003;66867;42.658;23.320;2023-10-31T00:10:00;13;12;
77699;PMS5003;66867;42.658;23.320;2023-10-31T00:11:00;16;14;
77699;PMS5003;66867;42.658;23.320;2023-10-31T00:12:00;16;14;
77699;PMS5003;66867;42.658;23.320;2023-10-31T00:13:00;16;14;
77699;PMS5003;66867;42.658;23.320;2023-10-31T00:14:00;12;12;
77699;PMS5003;66867;42.658;23.320;2023-10-31T00:15:00;14;14;
77699;PMS5003;66867;42.658;23.320;2023-10-31T00:16:00;16;14;
77699;PMS5003;66867;42.658;23.320;2023-10-31T00:17:00;14;13;
77699;PMS5003;66867;42.658;23.320;2023-10-31T00:18:00;18;16;
77699;PMS5003;66867;42.658;23.320;2023-10-31T00:19:00;12;12;
77699;PMS5003;66867;42.658;23.320;2023-10-31T00:20:00;16;13;
77699;PMS5003;66867;42.658;23.320;2023-10-31T00:21:00;13;12;
77699;PMS5003;66867;42.658;23.320;2023-10-31T00:22:00;16;16;
77699;PMS5003;66867;42.658;23.320;2023-10-31T00:23:00;14;13;
77699;PMS5003;66867;42.658;23.320;2023-10-31T00:24:00;19;15;
77699;PMS5003;66867;42.658;23.320;2023-10-31T00:25:00;13;13;
77699;PMS5003;66867;42.658;23.320;2023-10-31T00:26:00;12;12;
77699;PMS5003;66867;42.658;23.320;2023-10-31T00:27:00;10;10;
77699;PMS5003;66867;42.658;23.320;2023-10-31T00:28:00;13;11;
77699;PMS5003;66867;42.658;23.320;2023-10-31T00:29:00;14;13;
77699;PMS5003;66867;42.658;23.320;2023-10-31T00:30:00;14;13;
77699;PMS5003;66867;42.658;23.320;2023-10-31T00:31:00;13;12;
77699;PMS5003;66867;42.658;23.320;2023-10-31T00:32:00;14;14;
77699;PMS5003;66867;42.658;23.320;2023-10-31T00:33:00;11;11;
77699;PMS5003;66867;42.658;23.320;2023-10-31T00:34:01;13;13;
77699;PMS5003;66867;42.658;23.320;2023-10-31T00:35:00;14;13;
77699;PMS5003;66867;42.658;23.320;2023-10-31T00:36:01;13;13;
77699;PMS5003;66867;42.658;23.320;2023-10-31T00:37:00;14;14;
77699;PMS5003;66867;42.658;23.320;2023-10-31T00:38:00;12;11;
77699;PMS5003;66867;42.658;23.320;2023-10-31T00:39:00;13;13;
77699;PMS5003;66867;42.658;23.320;2023-10-31T00:40:00;12;10;
77699;PMS5003;66867;42.658;23.320;2023-10-31T00:41:00;12;11;
77699;PMS5003;66867;42.658;23.320;2023-10-31T00:42:00;12;12;
77699;PMS5003;66867;42.658;23.320;2023-10-31T00:43:00;11;10;
77699;PMS5003;66867;42.658;23.320;2023-10-31T00:44:00;13;12;
77699;PMS5003;66867;42.658;23.320;2023-10-31T00:45:00;16;12;
77699;PMS5003;66867;42.658;23.320;2023-10-31T00:46:03;13;13;
77699;PMS5003;66867;42.658;23.320;2023-10-31T00:47:00;11;10;
77699;PMS5003;66867;42.658;23.320;2023-10-31T00:48:00;12;12;
77699;PMS5003;66867;42.658;23.320;2023-10-31T00:49:00;13;12;
77699;PMS5003;66867;42.658;23.320;2023-10-31T00:50:00;13;11;
77699;PMS5003;66867;42.658;23.320;2023-10-31T00:51:00;14;13;
77699;PMS5003;66867;42.658;23.320;2023-10-31T00:52:00;14;14;
77699;PMS5003;66867;42.658;23.320;2023-10-31T00:53:00;17;14;
77699;PMS5003;66867;42.658;23.320;2023-10-31T00:54:00;16;15;
77699;PMS5003;66867;42.658;23.320;2023-10-31T00:55:00;11;11;
77699;PMS5003;66867;42.658;23.320;2023-10-31T00:56:01;15;15;
77699;PMS5003;66867;42.658;23.320;2023-10-31T00:57:00;12;12;
77699;PMS5003;66867;42.658;23.320;2023-10-31T00:58:00;13;13;
77699;PMS5003;66867;42.658;23.320;2023-10-31T00:59:00;13;11;
77699;PMS5003;66867;42.658;23.320;2023-10-31T01:00:00;15;15;
77699;PMS5003;66867;42.658;23.320;2023-10-31T01:01:00;15;14;
77699;PMS5003;66867;42.658;23.320;2023-10-31T01:02:00;12;11;
77699;PMS5003;66867;42.658;23.320;2023-10-31T01:03:00;13;11;
77699;PMS5003;66867;42.658;23.320;2023-10-31T01:04:00;12;12;
77699;PMS5003;66867;42.658;23.320;2023-10-31T01:05:00;14;14;
77699;PMS5003;66867;42.658;23.320;2023-10-31T01:06:00;10;10;
77699;PMS5003;66867;42.658;23.320;2023-10-31T01:07:00;12;12;
77699;PMS5003;66867;42.658;23.320;2023-10-31T01:08:00;14;14;
77699;PMS5003;66867;42.658;23.320;2023-10-31T01:09:00;14;14;
77699;PMS5003;66867;42.658;23.320;2023-10-31T01:10:00;15;15;
77699;PMS5003;66867;42.658;23.320;2023-10-31T01:11:00;17;15;
77699;PMS5003;66867;42.658;23.320;2023-10-31T01:12:00;12;11;
77699;PMS5003;66867;42.658;23.320;2023-10-31T01:13:00;15;14;
77699;PMS5003;66867;42.658;23.320;2023-10-31T01:14:00;14;14;
77699;PMS5003;66867;42.658;23.320;2023-10-31T01:15:00;11;11;
77699;PMS5003;66867;42.658;23.320;2023-10-31T01:16:00;12;11;
77699;PMS5003;66867;42.658;23.320;2023-10-31T01:17:00;15;14;
77699;PMS5003;66867;42.658;23.320;2023-10-31T01:18:00;14;12;
77699;PMS5003;66867;42.658;23.320;2023-10-31T01:19:00;11;11;
77699;PMS5003;66867;42.658;23.320;2023-10-31T01:20:00;15;14;
77699;PMS5003;66867;42.658;23.320;2023-10-31T01:21:00;16;15;
77699;PMS5003;66867;42.658;23.320;2023-10-31T01:22:00;14;12;
77699;PMS5003;66867;42.658;23.320;2023-10-31T01:23:00;11;11;
77699;PMS5003;66867;42.658;23.320;2023-10-31T01:24:00;12;11;
77699;PMS5003;66867;42.658;23.320;2023-10-31T01:25:01;15;15;
77699;PMS5003;66867;42.658;23.320;2023-10-31T01:26:00;15;12;
77699;PMS5003;66867;42.658;23.320;2023-10-31T01:27:00;15;12;
77699;PMS5003;66867;42.658;23.320;2023-10-31T01:28:00;20;19;
77699;PMS5003;66867;42.658;23.320;2023-10-31T01:29:00;14;14;
77699;PMS5003;66867;42.658;23.320;2023-10-31T01:30:00;18;17;
77699;PMS5003;66867;42.658;23.320;2023-10-31T01:31:00;17;16;
77699;PMS5003;66867;42.658;23.320;2023-10-31T01:32:00;16;16;
77699;PMS5003;66867;42.658;23.320;2023-10-31T01:33:00;16;14;
77699;PMS5003;66867;42.658;23.320;2023-10-31T01:34:00;14;12;
77699;PMS5003;66867;42.658;23.320;2023-10-31T01:35:00;18;17;
77699;PMS5003;66867;42.658;23.320;2023-10-31T01:36:00;16;15;
77699;PMS5003;66867;42.658;23.320;2023-10-31T01:37:00;16;16;
77699;PMS5003;66867;42.658;23.320;2023-10-31T01:38:00;12;12;
77699;PMS5003;66867;42.658;23.320;2023-10-31T01:39:00;15;15;
77699;PMS5003;66867;42.658;23.320;2023-10-31T01:40:00;17;11;
77699;PMS5003;66867;42.658;23.320;2023-10-31T01:41:00;14;12;
77699;PMS5003;66867;42.658;23.320;2023-10-31T01:42:00;15;14;
77699;PMS5003;66867;42.658;23.320;2023-10-31T01:43:00;16;15;
77699;PMS5003;66867;42.658;23.320;2023-10-31T01:44:00;18;17;
77699;PMS5003;66867;42.658;23.320;2023-10-31T01:45:00;16;15;
77699;PMS5003;66867;42.658;23.320;2023-10-31T01:46:01;16;16;
77699;PMS5003;66867;42.658;23.320;2023-10-31T01:47:00;14;13;
77699;PMS5003;66867;42.658;23.320;2023-10-31T01:48:00;14;13;
77699;PMS5003;66867;42.658;23.320;2023-10-31T01:49:00;17;14;
77699;PMS5003;66867;42.658;23.320;2023-10-31T01:50:00;12;12;
77699;PMS5003;66867;42.658;23.320;2023-10-31T01:51:02;15;14;
77699;PMS5003;66867;42.658;23.320;2023-10-31T01:52:01;15;14;
77699;PMS5003;66867;42.658;23.320;2023-10-31T01:53:00;14;14;
77699;PMS5003;66867;42.658;23.320;2023-10-31T01:54:00;14;14;
77699;PMS5003;66867;42.658;23.320;2023-10-31T01:55:02;17;16;
77699;PMS5003;66867;42.658;23.320;2023-10-31T01:56:01;18;17;
77699;PMS5003;66867;42.658;23.320;2023-10-31T01:57:01;15;14;
77699;PMS5003;66867;42.658;23.320;2023-10-31T01:58:01;17;16;
77699;PMS5003;66867;42.658;23.320;2023-10-31T01:59:00;19;18;
77699;PMS5003;66867;42.658;23.320;2023-10-31T02:00:01;15;14;
77699;PMS5003;66867;42.658;23.320;2023-10-31T02:01:00;15;14;
77699;PMS5003;66867;42.658;23.320;2023-10-31T02:02:00;15;13;
77699;PMS5003;66867;42.658;23.320;2023-10-31T02:03:01;18;17;
77699;PMS5003;66867;42.658;23.320;2023-10-31T02:04:00;18;18;
77699;PMS5003;66867;42.658;23.320;2023-10-31T02:05:00;17;17;
77699;PMS5003;66867;42.658;23.320;2023-10-31T02:06:00;18;17;
77699;PMS5003;66867;42.658;23.320;2023-10-31T02:07:00;17;17;
77699;PMS5003;66867;42.658;23.320;2023-10-31T02:08:01;19;18;
77699;PMS5003;66867;42.658;23.320;2023-10-31T02:09:00;16;16;
77699;PMS5003;66867;42.658;23.320;2023-10-31T02:10:00;16;15;
77699;PMS5003;66867;42.658;23.320;2023-10-31T02:11:00;16;16;
77699;PMS5003;66867;42.658;23.320;2023-10-31T02:12:00;17;17;
77699;PMS5003;66867;42.658;23.320;2023-10-31T02:13:17;18;18;
77699;PMS5003;66867;42.658;23.320;2023-10-31T02:14:00;18;16;
77699;PMS5003;66867;42.658;23.320;2023-10-31T02:15:01;19;18;
77699;PMS5003;66867;42.658;23.320;2023-10-31T02:16:00;17;15;
77699;PMS5003;66867;42.658;23.320;2023-10-31T02:17:00;17;17;
77699;PMS5003;66867;42.658;23.320;2023-10-31T02:18:00;20;19;
77699;PMS5003;66867;42.658;23.320;2023-10-31T02:19:00;18;16;
77699;PMS5003;66867;42.658;23.320;2023-10-31T02:20:00;16;15;
77699;PMS5003;66867;42.658;23.320;2023-10-31T02:21:00;18;18;
77699;PMS5003;66867;42.658;23.320;2023-10-31T02:22:00;16;16;
77699;PMS5003;66867;42.658;23.320;2023-10-31T02:23:00;16;16;
77699;PMS5003;66867;42.658;23.320;2023-10-31T02:24:02;18;18;
77699;PMS5003;66867;42.658;23.320;2023-10-31T02:25:00;21;18;
77699;PMS5003;66867;42.658;23.320;2023-10-31T02:26:00;18;18;
77699;PMS5003;66867;42.658;23.320;2023-10-31T02:27:02;18;17;
77699;PMS5003;66867;42.658;23.320;2023-10-31T02:28:00;17;16;
77699;PMS5003;66867;42.658;23.320;2023-10-31T02:29:01;19;18;
77699;PMS5003;66867;42.658;23.320;2023-10-31T02:30:00;18;17;
77699;PMS5003;66867;42.658;23.320;2023-10-31T02:31:00;15;15;
77699;PMS5003;66867;42.658;23.320;2023-10-31T02:32:00;18;17;
77699;PMS5003;66867;42.658;23.320;2023-10-31T02:33:01;20;19;
77699;PMS5003;66867;42.658;23.320;2023-10-31T02:34:00;19;17;
77699;PMS5003;66867;42.658;23.320;2023-10-31T02:35:00;16;16;
77699;PMS5003;66867;42.658;23.320;2023-10-31T02:36:00;16;16;
77699;PMS5003;66867;42.658;23.320;2023-10-31T02:37:00;19;18;
77699;PMS5003;66867;42.658;23.320;2023-10-31T02:38:00;17;17;
77699;PMS5003;66867;42.658;23.320;2023-10-31T02:39:00;19;18;
77699;PMS5003;66867;42.658;23.320;2023-10-31T02:40:00;17;16;
77699;PMS5003;66867;42.658;23.320;2023-10-31T02:41:00;15;14;
77699;PMS5003;66867;42.658;23.320;2023-10-31T02:42:00;15;14;
77699;PMS5003;66867;42.658;23.320;2023-10-31T02:43:00;19;17;
77699;PMS5003;66867;42.658;23.320;2023-10-31T02:44:00;16;15;
77699;PMS5003;66867;42.658;23.320;2023-10-31T02:45:00;20;17;
77699;PMS5003;66867;42.658;23.320;2023-10-31T02:46:00;16;15;
77699;PMS5003;66867;42.658;23.320;2023-10-31T02:47:00;18;18;
77699;PMS5003;66867;42.658;23.320;2023-10-31T02:48:00;16;16;
77699;PMS5003;66867;42.658;23.320;2023-10-31T02:49:00;16;15;
77699;PMS5003;66867;42.658;23.320;2023-10-31T02:50:00;14;14;
77699;PMS5003;66867;42.658;23.320;2023-10-31T02:51:00;16;16;
77699;PMS5003;66867;42.658;23.320;2023-10-31T02:52:00;18;17;
77699;PMS5003;66867;42.658;23.320;2023-10-31T02:53:00;16;14;
77699;PMS5003;66867;42.658;23.320;2023-10-31T02:54:00;18;16;
77699;PMS5003;66867;42.658;23.320;2023-10-31T02:55:00;18;16;
77699;PMS5003;66867;42.658;23.320;2023-10-31T02:56:00;17;15;
77699;PMS5003;66867;42.658;23.320;2023-10-31T02:57:00;18;18;
77699;PMS5003;66867;42.658;23.320;2023-10-31T02:58:00;16;16;
77699;PMS5003;66867;42.658;23.320;2023-10-31T02:59:00;20;20;
77699;PMS5003;66867;42.658;23.320;2023-10-31T03:00:00;15;15;
77699;PMS5003;66867;42.658;23.320;2023-10-31T03:01:00;16;16;
77699;PMS5003;66867;42.658;23.320;2023-10-31T03:02:00;16;15;
77699;PMS5003;66867;42.658;23.320;2023-10-31T03:03:00;17;17;
77699;PMS5003;66867;42.658;23.320;2023-10-31T03:04:00;17;15;
77699;PMS5003;66867;42.658;23.320;2023-10-31T03:05:00;16;15;
77699;PMS5003;66867;42.658;23.320;2023-10-31T03:06:00;16;16;
77699;PMS5003;66867;42.658;23.320;2023-10-31T03:07:00;17;17;
77699;PMS5003;66867;42.658;23.320;2023-10-31T03:08:00;15;15;
77699;PMS5003;66867;42.658;23.320;2023-10-31T03:09:00;17;16;
77699;PMS5003;66867;42.658;23.320;2023-10-31T03:10:00;19;18;
77699;PMS5003;66867;42.658;23.320;2023-10-31T03:11:00;15;15;
77699;PMS5003;66867;42.658;23.320;2023-10-31T03:12:00;19;18;
77699;PMS5003;66867;42.658;23.320;2023-10-31T03:13:00;16;16;
77699;PMS5003;66867;42.658;23.320;2023-10-31T03:14:00;16;14;
77699;PMS5003;66867;42.658;23.320;2023-10-31T03:15:00;15;14;
77699;PMS5003;66867;42.658;23.320;2023-10-31T03:16:00;19;17;
77699;PMS5003;66867;42.658;23.320;2023-10-31T03:17:00;18;17;
77699;PMS5003;66867;42.658;23.320;2023-10-31T03:18:00;20;17;
77699;PMS5003;66867;42.658;23.320;2023-10-31T03:19:00;19;17;
77699;PMS5003;66867;42.658;23.320;2023-10-31T03:20:00;16;16;
77699;PMS5003;66867;42.658;23.320;2023-10-31T03:21:00;18;17;
77699;PMS5003;66867;42.658;23.320;2023-10-31T03:22:00;17;14;
77699;PMS5003;66867;42.658;23.320;2023-10-31T03:23:00;17;17;
77699;PMS5003;66867;42.658;23.320;2023-10-31T03:24:00;20;18;
77699;PMS5003;66867;42.658;23.320;2023-10-31T03:25:00;18;17;
77699;PMS5003;66867;42.658;23.320;2023-10-31T03:26:00;17;17;
77699;PMS5003;66867;42.658;23.320;2023-10-31T03:27:00;19;19;
77699;PMS5003;66867;42.658;23.320;2023-10-31T03:28:00;15;15;
77699;PMS5003;66867;42.658;23.320;2023-10-31T03:29:00;15;14;
77699;PMS5003;66867;42.658;23.320;2023-10-31T03:30:00;16;15;
77699;PMS5003;66867;42.658;23.320;2023-10-31T03:31:00;17;16;
77699;PMS5003;66867;42.658;23.320;2023-10-31T03:32:00;16;16;
77699;PMS5003;66867;42.658;23.320;2023-10-31T03:33:00;19;18;
77699;PMS5003;66867;42.658;23.320;2023-10-31T03:34:00;20;18;
77699;PMS5003;66867;42.658;23.320;2023-10-31T03:35:00;19;18;
77699;PMS5003;66867;42.658;23.320;2023-10-31T03:36:00;19;19;
77699;PMS5003;66867;42.658;23.320;2023-10-31T03:37:00;20;17;
77699;PMS5003;66867;42.658;23.320;2023-10-31T03:38:00;15;15;
77699;PMS5003;66867;42.658;23.320;2023-10-31T03:39:00;18;17;
77699;PMS5003;66867;42.658;23.320;2023-10-31T03:40:00;19;19;
77699;PMS5003;66867;42.658;23.320;2023-10-31T03:41:01;16;16;
77699;PMS5003;66867;42.658;23.320;2023-10-31T03:42:00;21;20;
77699;PMS5003;66867;42.658;23.320;2023-10-31T03:43:00;19;17;
77699;PMS5003;66867;42.658;23.320;2023-10-31T03:44:00;19;17;
77699;PMS5003;66867;42.658;23.320;2023-10-31T03:45:00;19;18;
77699;PMS5003;66867;42.658;23.320;2023-10-31T03:46:00;17;16;
77699;PMS5003;66867;42.658;23.320;2023-10-31T03:47:00;18;17;
77699;PMS5003;66867;42.658;23.320;2023-10-31T03:48:00;19;18;
77699;PMS5003;66867;42.658;23.320;2023-10-31T03:49:00;19;18;
77699;PMS5003;66867;42.658;23.320;2023-10-31T03:50:00;18;18;
77699;PMS5003;66867;42.658;23.320;2023-10-31T03:51:00;20;19;
77699;PMS5003;66867;42.658;23.320;2023-10-31T03:52:00;18;17;
77699;PMS5003;66867;42.658;23.320;2023-10-31T03:53:00;19;18;
77699;PMS5003;66867;42.658;23.320;2023-10-31T03:54:00;20;20;
77699;PMS5003;66867;42.658;23.320;2023-10-31T03:55:00;19;18;
77699;PMS5003;66867;42.658;23.320;2023-10-31T03:56:00;18;18;
77699;PMS5003;66867;42.658;23.320;2023-10-31T03:57:00;19;19;
77699;PMS5003;66867;42.658;23.320;2023-10-31T03:58:00;18;17;
77699;PMS5003;66867;42.658;23.320;2023-10-31T03:59:00;20;19;
77699;PMS5003;66867;42.658;23.320;2023-10-31T04:00:00;18;17;
77699;PMS5003;66867;42.658;23.320;2023-10-31T04:01:00;20;19;
77699;PMS5003;66867;42.658;23.320;2023-10-31T04:02:00;17;15;
77699;PMS5003;66867;42.658;23.320;2023-10-31T04:03:00;15;15;
77699;PMS5003;66867;42.658;23.320;2023-10-31T04:04:00;18;17;
77699;PMS5003;66867;42.658;23.320;2023-10-31T04:05:00;20;20;
77699;PMS5003;66867;42.658;23.320;2023-10-31T04:06:00;18;18;
77699;PMS5003;66867;42.658;23.320;2023-10-31T04:07:00;22;20;
77699;PMS5003;66867;42.658;23.320;2023-10-31T04:08:01;17;17;
77699;PMS5003;66867;42.658;23.320;2023-10-31T04:09:00;18;18;
77699;PMS5003;66867;42.658;23.320;2023-10-31T04:10:00;21;19;
77699;PMS5003;66867;42.658;23.320;2023-10-31T04:11:00;19;19;
77699;PMS5003;66867;42.658;23.320;2023-10-31T04:12:00;18;18;
77699;PMS5003;66867;42.658;23.320;2023-10-31T04:13:00;17;17;
77699;PMS5003;66867;42.658;23.320;2023-10-31T04:14:00;17;17;
77699;PMS5003;66867;42.658;23.320;2023-10-31T04:15:01;20;19;
77699;PMS5003;66867;42.658;23.320;2023-10-31T04:16:00;21;21;
77699;PMS5003;66867;42.658;23.320;2023-10-31T04:17:00;20;20;
77699;PMS5003;66867;42.658;23.320;2023-10-31T04:18:00;23;21;
77699;PMS5003;66867;42.658;23.320;2023-10-31T04:19:00;17;17;
77699;PMS5003;66867;42.658;23.320;2023-10-31T04:20:01;21;20;
77699;PMS5003;66867;42.658;23.320;2023-10-31T04:21:00;19;18;
77699;PMS5003;66867;42.658;23.320;2023-10-31T04:22:00;15;15;
77699;PMS5003;66867;42.658;23.320;2023-10-31T04:23:00;20;19;
77699;PMS5003;66867;42.658;23.320;2023-10-31T04:24:00;22;21;
77699;PMS5003;66867;42.658;23.320;2023-10-31T04:25:00;17;17;
77699;PMS5003;66867;42.658;23.320;2023-10-31T04:26:00;21;19;
77699;PMS5003;66867;42.658;23.320;2023-10-31T04:27:00;17;17;
77699;PMS5003;66867;42.658;23.320;2023-10-31T04:28:00;21;20;
77699;PMS5003;66867;42.658;23.320;2023-10-31T04:29:00;17;16;
77699;PMS5003;66867;42.658;23.320;2023-10-31T04:30:01;20;19;
77699;PMS5003;66867;42.658;23.320;2023-10-31T04:31:00;24;22;
77699;PMS5003;66867;42.658;23.320;2023-10-31T04:32:00;17;16;
77699;PMS5003;66867;42.658;23.320;2023-10-31T04:33:00;22;21;
77699;PMS5003;66867;42.658;23.320;2023-10-31T04:34:00;22;20;
77699;PMS5003;66867;42.658;23.320;2023-10-31T04:35:00;22;20;
77699;PMS5003;66867;42.658;23.320;2023-10-31T04:36:00;22;20;
77699;PMS5003;66867;42.658;23.320;2023-10-31T04:37:00;18;18;
77699;PMS5003;66867;42.658;23.320;2023-10-31T04:38:00;20;19;
77699;PMS5003;66867;42.658;23.320;2023-10-31T04:39:00;20;19;
77699;PMS5003;66867;42.658;23.320;2023-10-31T04:40:00;21;19;
77699;PMS5003;66867;42.658;23.320;2023-10-31T04:41:00;22;20;
77699;PMS5003;66867;42.658;23.320;2023-10-31T04:42:00;23;23;
77699;PMS5003;66867;42.658;23.320;2023-10-31T04:43:01;21;19;
77699;PMS5003;66867;42.658;23.320;2023-10-31T04:44:00;20;20;
77699;PMS5003;66867;42.658;23.320;2023-10-31T04:45:00;19;19;
77699;PMS5003;66867;42.658;23.320;2023-10-31T04:46:00;21;20;
77699;PMS5003;66867;42.658;23.320;2023-10-31T04:47:00;21;21;
77699;PMS5003;66867;42.658;23.320;2023-10-31T04:48:00;22;21;
77699;PMS5003;66867;42.658;23.320;2023-10-31T04:49:00;30;28;
77699;PMS5003;66867;42.658;23.320;2023-10-31T04:50:00;23;23;
77699;PMS5003;66867;42.658;23.320;2023-10-31T04:51:00;23;23;
77699;PMS5003;66867;42.658;23.320;2023-10-31T04:52:00;22;22;
77699;PMS5003;66867;42.658;23.320;2023-10-31T04:53:00;21;21;
77699;PMS5003;66867;42.658;23.320;2023-10-31T04:54:00;20;20;
77699;PMS5003;66867;42.658;23.320;2023-10-31T04:55:00;21;20;
77699;PMS5003;66867;42.658;23.320;2023-10-31T04:56:00;21;20;
77699;PMS5003;66867;42.658;23.320;2023-10-31T04:57:00;29;26;
77699;PMS5003;66867;42.658;23.320;2023-10-31T04:58:00;25;24;
77699;PMS5003;66867;42.658;23.320;2023-10-31T04:59:00;20;20;
77699;PMS5003;66867;42.658;23.320;2023-10-31T05:00:00;27;25;
77699;PMS5003;66867;42.658;23.320;2023-10-31T05:01:00;23;22;
77699;PMS5003;66867;42.658;23.320;2023-10-31T05:02:00;21;21;
77699;PMS5003;66867;42.658;23.320;2023-10-31T05:03:00;21;21;
77699;PMS5003;66867;42.658;23.320;2023-10-31T05:04:00;26;26;
77699;PMS5003;66867;42.658;23.320;2023-10-31T05:05:01;26;24;
77699;PMS5003;66867;42.658;23.320;2023-10-31T05:06:00;32;30;
77699;PMS5003;66867;42.658;23.320;2023-10-31T05:07:00;28;27;
77699;PMS5003;66867;42.658;23.320;2023-10-31T05:08:00;28;28;
77699;PMS5003;66867;42.658;23.320;2023-10-31T05:09:00;27;24;
77699;PMS5003;66867;42.658;23.320;2023-10-31T05:10:00;28;27;
77699;PMS5003;66867;42.658;23.320;2023-10-31T05:11:00;26;24;
77699;PMS5003;66867;42.658;23.320;2023-10-31T05:12:00;26;26;
77699;PMS5003;66867;42.658;23.320;2023-10-31T05:13:00;29;27;
77699;PMS5003;66867;42.658;23.320;2023-10-31T05:14:00;22;22;
77699;PMS5003;66867;42.658;23.320;2023-10-31T05:15:00;27;25;
77699;PMS5003;66867;42.658;23.320;2023-10-31T05:16:00;31;30;
77699;PMS5003;66867;42.658;23.320;2023-10-31T05:17:00;28;28;
77699;PMS5003;66867;42.658;23.320;2023-10-31T05:18:00;26;26;
77699;PMS5003;66867;42.658;23.320;2023-10-31T05:19:00;24;22;
77699;PMS5003;66867;42.658;23.320;2023-10-31T05:20:00;28;28;
77699;PMS5003;66867;42.658;23.320;2023-10-31T05:21:00;26;23;
77699;PMS5003;66867;42.658;23.320;2023-10-31T05:22:00;28;26;
77699;PMS5003;66867;42.658;23.320;2023-10-31T05:23:00;28;28;
77699;PMS5003;66867;42.658;23.320;2023-10-31T05:24:00;30;30;
77699;PMS5003;66867;42.658;23.320;2023-10-31T05:25:00;29;27;
77699;PMS5003;66867;42.658;23.320;2023-10-31T05:26:00;33;30;
77699;PMS5003;66867;42.658;23.320;2023-10-31T05:27:00;29;27;
77699;PMS5003;66867;42.658;23.320;2023-10-31T05:28:00;28;26;
77699;PMS5003;66867;42.658;23.320;2023-10-31T05:29:00;27;26;
77699;PMS5003;66867;42.658;23.320;2023-10-31T05:30:00;28;26;
77699;PMS5003;66867;42.658;23.320;2023-10-31T05:31:00;26;26;
77699;PMS5003;66867;42.658;23.320;2023-10-31T05:32:00;29;29;
77699;PMS5003;66867;42.658;23.320;2023-10-31T05:33:00;27;26;
77699;PMS5003;66867;42.658;23.320;2023-10-31T05:34:00;24;24;
77699;PMS5003;66867;42.658;23.320;2023-10-31T05:35:00;26;25;
77699;PMS5003;66867;42.658;23.320;2023-10-31T05:36:00;29;27;
77699;PMS5003;66867;42.658;23.320;2023-10-31T05:37:00;29;28;
77699;PMS5003;66867;42.658;23.320;2023-10-31T05:38:00;38;31;
77699;PMS5003;66867;42.658;23.320;2023-10-31T05:39:00;30;29;
77699;PMS5003;66867;42.658;23.320;2023-10-31T05:40:00;34;31;
77699;PMS5003;66867;42.658;23.320;2023-10-31T05:41:00;30;29;
77699;PMS5003;66867;42.658;23.320;2023-10-31T05:42:00;39;34;
77699;PMS5003;66867;42.658;23.320;2023-10-31T05:43:01;38;35;
77699;PMS5003;66867;42.658;23.320;2023-10-31T05:44:00;42;36;
77699;PMS5003;66867;42.658;23.320;2023-10-31T05:45:00;37;33;
77699;PMS5003;66867;42.658;23.320;2023-10-31T05:46:00;37;33;
77699;PMS5003;66867;42.658;23.320;2023-10-31T05:47:00;33;32;
77699;PMS5003;66867;42.658;23.320;2023-10-31T05:48:00;30;28;
77699;PMS5003;66867;42.658;23.320;2023-10-31T05:49:00;29;28;
77699;PMS5003;66867;42.658;23.320;2023-10-31T05:50:00;29;29;
77699;PMS5003;66867;42.658;23.320;2023-10-31T05:51:00;28;27;
77699;PMS5003;66867;42.658;23.320;2023-10-31T05:52:00;28;24;
77699;PMS5003;66867;42.658;23.320;2023-10-31T05:53:00;26;26;
77699;PMS5003;66867;42.658;23.320;2023-10-31T05:54:00;29;27;
77699;PMS5003;66867;42.658;23.320;2023-10-31T05:55:00;26;25;
77699;PMS5003;66867;42.658;23.320;2023-10-31T05:56:00;25;24;
77699;PMS5003;66867;42.658;23.320;2023-10-31T05:57:00;29;29;
77699;PMS5003;66867;42.658;23.320;2023-10-31T05:58:00;29;28;
77699;PMS5003;66867;42.658;23.320;2023-10-31T05:59:00;35;31;
77699;PMS5003;66867;42.658;23.320;2023-10-31T06:00:00;29;29;
77699;PMS5003;66867;42.658;23.320;2023-10-31T06:01:00;31;29;
77699;PMS5003;66867;42.658;23.320;2023-10-31T06:02:00;25;24;
77699;PMS5003;66867;42.658;23.320;2023-10-31T06:03:00;24;24;
77699;PMS5003;66867;42.658;23.320;2023-10-31T06:04:00;26;26;
77699;PMS5003;66867;42.658;23.320;2023-10-31T06:05:00;27;26;
77699;PMS5003;66867;42.658;23.320;2023-10-31T06:06:00;27;26;
77699;PMS5003;66867;42.658;23.320;2023-10-31T06:07:00;32;30;
77699;PMS5003;66867;42.658;23.320;2023-10-31T06:08:00;27;26;
77699;PMS5003;66867;42.658;23.320;2023-10-31T06:09:00;28;25;
77699;PMS5003;66867;42.658;23.320;2023-10-31T06:10:00;26;25;
77699;PMS5003;66867;42.658;23.320;2023-10-31T06:11:01;30;29;
77699;PMS5003;66867;42.658;23.320;2023-10-31T06:12:00;27;27;
77699;PMS5003;66867;42.658;23.320;2023-10-31T06:13:00;27;26;
77699;PMS5003;66867;42.658;23.320;2023-10-31T06:14:00;29;27;
77699;PMS5003;66867;42.658;23.320;2023-10-31T06:15:00;31;30;
77699;PMS5003;66867;42.658;23.320;2023-10-31T06:16:00;33;29;
77699;PMS5003;66867;42.658;23.320;2023-10-31T06:17:00;31;29;
77699;PMS5003;66867;42.658;23.320;2023-10-31T06:18:00;32;30;
77699;PMS5003;66867;42.658;23.320;2023-10-31T06:19:00;36;33;
77699;PMS5003;66867;42.658;23.320;2023-10-31T06:20:01;35;29;
77699;PMS5003;66867;42.658;23.320;2023-10-31T06:21:00;32;30;
77699;PMS5003;66867;42.658;23.320;2023-10-31T06:22:00;32;31;
77699;PMS5003;66867;42.658;23.320;2023-10-31T06:23:00;36;31;
77699;PMS5003;66867;42.658;23.320;2023-10-31T06:24:00;30;29;
77699;PMS5003;66867;42.658;23.320;2023-10-31T06:25:00;36;32;
77699;PMS5003;66867;42.658;23.320;2023-10-31T06:26:00;35;33;
77699;PMS5003;66867;42.658;23.320;2023-10-31T06:27:00;34;30;
77699;PMS5003;66867;42.658;23.320;2023-10-31T06:28:00;37;33;
77699;PMS5003;66867;42.658;23.320;2023-10-31T06:29:00;34;32;
77699;PMS5003;66867;42.658;23.320;2023-10-31T06:30:00;35;32;
77699;PMS5003;66867;42.658;23.320;2023-10-31T06:31:00;34;31;